Newkirk, NM (88431)

12:15 PM MDT on August 30, 2014 (GMT -0600)
Conchas Dam | Change Station
CLOSE
Current Station
Personal Weather Station
Location: Conchas, NM
Elevation: 4268 ft
Nearby Weather Stations

Elev 4268 ft 35.36 °N, 104.22 °W | Updated 10 minutes ago

Clear
Clear
88.0 °F
Feels Like 85 °F
N
5.0
Wind Variable Wind from WSW
Gusts 15.0 mph

Today
High -- | Low -- °F
--% Chance of Precip.
Yesterday
High -- | Low -- °F
Precip. -- in
6:28 AM 7:26 PM
Waxing Crescent, 23% visible
Pressure 29.86 in
Visibility 10.0 miles
Clouds Few 7000 ft
Heat Index 85 °F
Dew Point 50 °F
Humidity 27%
Rainfall 0.00 in
Snow Depth Not available.
UV 10 out of 12
Pollen 8.70 out of 12
Air Quality Not available.
Flu Activity Not available.
METAR KTCC 301753Z AUTO 21012KT 10SM FEW070 33/10 A3006 RMK AO2 PK WND 21026/1717 SLP112 T03280100 10328 20167 58017

More Conditions Fewer Conditions

Pressure 29.86 in
Visibility 10.0 miles
Clouds Few 7000 ft
Heat Index 85 °F
Dew Point 50 °F
Humidity 27%
Rainfall 0.00 in
Snow Depth Not available.
UV 10 out of 12
Pollen 8.70 out of 12
Air Quality Not available.
Flu Activity Not available.
METAR KTCC 301753Z AUTO 21012KT 10SM FEW070 33/10 A3006 RMK AO2 PK WND 21026/1717 SLP112 T03280100 10328 20167 58017

More Conditions Fewer Conditions

10-Day Weather Forecast

Almanac

Astronomy

Aug. 30, 2014 Rise Set
Actual Time 6:28 AM MDT 7:26 PM MDT
Civil Twilight 6:02 AM MDT 7:52 PM MDT
Nautical Twilight 5:31 AM MDT 8:23 PM MDT
Astronomical Twilight 4:59 AM MDT 8:54 PM MDT
Moon 11:05 AM MDT 10:14 PM MDT
Length of Visible Light 13h 50m
Length of Day
12h 58m
Tomorrow will be 2m 6s shorter.
Waxing Crescent, 23% of the Moon is Illuminated
Today
Waxing Crescent
Sep 2
First Quarter
Sep 8
Full
Sep 15
Last Quarter
Sep 24
New

Today's Extremes

State Highs State Lows

Community

WunderPhotos

Upload Photos

1,748,583 photos uploaded!

WunderBlogs® & News

Nearby

Snow Depth

Station Depth Elevation
Wesner Springs 1 in 11120 ft
Santa Fe 1 in 11445 ft
Gallegos Peak 0 in 9800 ft
Red River Pass #2 0 in 9850 ft
Quemazon 1 in 9500 ft

Earthquake Activity

City Distance Mag. Time & Date
No recent earthquake activity has been reported nearby.
Minimum magnitude displayed is 2.5.

Coastal Water Temperatures

Place Temperature
No Stations Reporting

Nearby Weather Stations